sensor_id;sensor_type;location;lat;lon;timestamp;pressure;altitude;pressure_sealevel;temperature;humidity
72585;BME280;60618;40.084;32.908;2022-09-09T00:04:40;89822.59;;;18.72;39.88
72585;BME280;60618;40.084;32.908;2022-09-09T00:07:21;89817.63;;;18.76;39.86
72585;BME280;60618;40.084;32.908;2022-09-09T00:10:03;89819.06;;;18.77;40.11
72585;BME280;60618;40.084;32.908;2022-09-09T00:15:14;89824.69;;;18.79;39.52
72585;BME280;60618;40.084;32.908;2022-09-09T00:20:32;89833.09;;;18.76;40.06
72585;BME280;60618;40.084;32.908;2022-09-09T00:23:12;89823.53;;;18.75;40.60
72585;BME280;60618;40.084;32.908;2022-09-09T00:25:53;89826.97;;;18.75;41.14
72585;BME280;60618;40.084;32.908;2022-09-09T00:28:26;89826.31;;;18.69;40.75
72585;BME280;60618;40.084;32.908;2022-09-09T00:30:54;89837.09;;;18.69;40.73
72585;BME280;60618;40.084;32.908;2022-09-09T00:33:26;89835.66;;;18.68;40.51
72585;BME280;60618;40.084;32.908;2022-09-09T00:35:57;89830.53;;;18.64;40.84
72585;BME280;60618;40.084;32.908;2022-09-09T00:38:36;89835.00;;;18.62;41.08
72585;BME280;60618;40.084;32.908;2022-09-09T00:41:29;89842.84;;;18.60;41.58
72585;BME280;60618;40.084;32.908;2022-09-09T00:44:33;89840.97;;;18.55;42.23
72585;BME280;60618;40.084;32.908;2022-09-09T00:49:38;89840.53;;;18.51;42.60
72585;BME280;60618;40.084;32.908;2022-09-09T00:57:33;89847.25;;;18.44;42.93
72585;BME280;60618;40.084;32.908;2022-09-09T01:00:18;89846.81;;;18.40;42.58
72585;BME280;60618;40.084;32.908;2022-09-09T01:06:32;89852.50;;;18.36;43.23
72585;BME280;60618;40.084;32.908;2022-09-09T01:11:09;89857.03;;;18.28;43.82
72585;BME280;60618;40.084;32.908;2022-09-09T01:13:41;89855.78;;;18.29;44.29
72585;BME280;60618;40.084;32.908;2022-09-09T01:16:10;89874.66;;;18.29;44.22
72585;BME280;60618;40.084;32.908;2022-09-09T01:18:44;89873.94;;;18.29;44.09
72585;BME280;60618;40.084;32.908;2022-09-09T01:24:31;89870.09;;;18.24;43.97
72585;BME280;60618;40.084;32.908;2022-09-09T01:27:04;89872.78;;;18.24;44.38
72585;BME280;60618;40.084;32.908;2022-09-09T01:29:32;89870.56;;;18.23;45.04
72585;BME280;60618;40.084;32.908;2022-09-09T01:32:35;89868.19;;;18.19;44.87
72585;BME280;60618;40.084;32.908;2022-09-09T01:34:47;89864.75;;;18.19;44.90
72585;BME280;60618;40.084;32.908;2022-09-09T01:37:14;89875.53;;;18.19;44.26
72585;BME280;60618;40.084;32.908;2022-09-09T01:39:43;89865.03;;;18.15;44.27
72585;BME280;60618;40.084;32.908;2022-09-09T01:42:13;89866.06;;;18.12;44.82
72585;BME280;60618;40.084;32.908;2022-09-09T01:44:41;89868.97;;;18.14;44.85
72585;BME280;60618;40.084;32.908;2022-09-09T01:47:08;89861.41;;;18.12;45.20
72585;BME280;60618;40.084;32.908;2022-09-09T01:49:36;89872.91;;;18.13;45.16
72585;BME280;60618;40.084;32.908;2022-09-09T01:52:03;89870.22;;;18.13;45.36
72585;BME280;60618;40.084;32.908;2022-09-09T01:54:31;89866.06;;;18.12;45.81
72585;BME280;60618;40.084;32.908;2022-09-09T02:02:28;89860.00;;;18.06;45.76
72585;BME280;60618;40.084;32.908;2022-09-09T02:05:09;89868.91;;;18.01;45.81
72585;BME280;60618;40.084;32.908;2022-09-09T02:07:41;89874.81;;;17.99;46.37
72585;BME280;60618;40.084;32.908;2022-09-09T02:12:54;89864.38;;;17.90;46.00
72585;BME280;60618;40.084;32.908;2022-09-09T02:15:28;89868.78;;;17.87;46.48
72585;BME280;60618;40.084;32.908;2022-09-09T02:17:57;89871.06;;;17.83;46.81
72585;BME280;60618;40.084;32.908;2022-09-09T02:20:26;89873.75;;;17.83;46.50
72585;BME280;60618;40.084;32.908;2022-09-09T02:22:58;89872.31;;;17.82;46.47
72585;BME280;60618;40.084;32.908;2022-09-09T02:25:28;89872.31;;;17.82;46.72
72585;BME280;60618;40.084;32.908;2022-09-09T02:27:56;89881.63;;;17.81;46.79
72585;BME280;60618;40.084;32.908;2022-09-09T02:30:23;89881.41;;;17.79;46.36
72585;BME280;60618;40.084;32.908;2022-09-09T02:32:52;89877.97;;;17.79;46.79
72585;BME280;60618;40.084;32.908;2022-09-09T02:35:23;89878.25;;;17.75;47.03
72585;BME280;60618;40.084;32.908;2022-09-09T02:37:52;89882.69;;;17.73;47.25
72585;BME280;60618;40.084;32.908;2022-09-09T02:40:20;89880.25;;;17.69;46.83
72585;BME280;60618;40.084;32.908;2022-09-09T02:42:48;89885.19;;;17.65;47.06
72585;BME280;60618;40.084;32.908;2022-09-09T02:45:19;89884.72;;;17.61;47.36
72585;BME280;60618;40.084;32.908;2022-09-09T02:48:09;89882.84;;;17.56;46.88
72585;BME280;60618;40.084;32.908;2022-09-09T02:50:49;89894.63;;;17.53;47.65
72585;BME280;60618;40.084;32.908;2022-09-09T02:53:43;89897.59;;;17.49;47.75
72585;BME280;60618;40.084;32.908;2022-09-09T02:56:20;89903.47;;;17.48;47.60
72585;BME280;60618;40.084;32.908;2022-09-09T02:58:48;89901.81;;;17.45;47.97
72585;BME280;60618;40.084;32.908;2022-09-09T03:01:15;89905.94;;;17.46;47.19
72585;BME280;60618;40.084;32.908;2022-09-09T03:03:42;89909.63;;;17.43;47.71
72585;BME280;60618;40.084;32.908;2022-09-09T03:06:09;89914.81;;;17.41;47.97
72585;BME280;60618;40.084;32.908;2022-09-09T03:08:36;89910.66;;;17.40;48.04
72585;BME280;60618;40.084;32.908;2022-09-09T03:11:03;89911.16;;;17.38;48.16
72585;BME280;60618;40.084;32.908;2022-09-09T03:13:31;89910.44;;;17.38;47.85
72585;BME280;60618;40.084;32.908;2022-09-09T03:15:57;89917.06;;;17.37;48.32
72585;BME280;60618;40.084;32.908;2022-09-09T03:18:24;89912.66;;;17.34;47.96
72585;BME280;60618;40.084;32.908;2022-09-09T03:20:51;89920.00;;;17.33;47.93
72585;BME280;60618;40.084;32.908;2022-09-09T03:23:18;89913.44;;;17.28;48.21
72585;BME280;60618;40.084;32.908;2022-09-09T03:25:51;89924.22;;;17.28;48.16
72585;BME280;60618;40.084;32.908;2022-09-09T03:28:18;89922.53;;;17.25;48.61
72585;BME280;60618;40.084;32.908;2022-09-09T03:30:45;89922.28;;;17.23;48.74
72585;BME280;60618;40.084;32.908;2022-09-09T03:33:12;89912.75;;;17.22;48.62
72585;BME280;60618;40.084;32.908;2022-09-09T03:35:39;89923.03;;;17.24;48.74
72585;BME280;60618;40.084;32.908;2022-09-09T03:38:05;89916.41;;;17.25;48.83
72585;BME280;60618;40.084;32.908;2022-09-09T03:40:32;89914.47;;;17.25;48.69
72585;BME280;60618;40.084;32.908;2022-09-09T03:42:59;89921.31;;;17.26;48.73
72585;BME280;60618;40.084;32.908;2022-09-09T03:45:26;89920.50;;;17.31;48.57
72585;BME280;60618;40.084;32.908;2022-09-09T03:47:53;89922.66;;;17.39;48.62
72585;BME280;60618;40.084;32.908;2022-09-09T03:50:20;89932.66;;;17.44;48.59
72585;BME280;60618;40.084;32.908;2022-09-09T03:52:47;89935.78;;;17.48;48.40
72585;BME280;60618;40.084;32.908;2022-09-09T03:55:14;89938.16;;;17.57;48.38
72585;BME280;60618;40.084;32.908;2022-09-09T03:57:40;89934.88;;;17.70;48.05
72585;BME280;60618;40.084;32.908;2022-09-09T04:00:08;89932.53;;;17.85;47.83
72585;BME280;60618;40.084;32.908;2022-09-09T04:02:35;89933.38;;;17.99;47.43
72585;BME280;60618;40.084;32.908;2022-09-09T04:05:02;89940.50;;;18.15;47.23
72585;BME280;60618;40.084;32.908;2022-09-09T04:07:28;89936.47;;;18.27;45.79
72585;BME280;60618;40.084;32.908;2022-09-09T04:09:55;89932.97;;;18.32;45.37
72585;BME280;60618;40.084;32.908;2022-09-09T04:12:22;89942.41;;;18.44;45.49
72585;BME280;60618;40.084;32.908;2022-09-09T04:14:49;89952.00;;;18.59;45.32
72585;BME280;60618;40.084;32.908;2022-09-09T04:17:16;89948.38;;;18.75;45.38
72585;BME280;60618;40.084;32.908;2022-09-09T04:19:42;89944.94;;;18.93;45.16
72585;BME280;60618;40.084;32.908;2022-09-09T04:22:09;89951.56;;;19.11;44.88
72585;BME280;60618;40.084;32.908;2022-09-09T04:24:36;89943.84;;;19.34;44.36
72585;BME280;60618;40.084;32.908;2022-09-09T04:27:03;89949.66;;;19.57;44.21
72585;BME280;60618;40.084;32.908;2022-09-09T04:29:30;89956.44;;;19.77;43.69
72585;BME280;60618;40.084;32.908;2022-09-09T04:31:56;89954.91;;;19.95;43.36
72585;BME280;60618;40.084;32.908;2022-09-09T04:34:23;89954.09;;;20.13;42.97
72585;BME280;60618;40.084;32.908;2022-09-09T04:36:50;89955.44;;;20.33;42.65
72585;BME280;60618;40.084;32.908;2022-09-09T04:39:17;89960.75;;;20.52;42.37
72585;BME280;60618;40.084;32.908;2022-09-09T04:41:44;89954.47;;;20.70;41.63
72585;BME280;60618;40.084;32.908;2022-09-09T04:44:11;89960.28;;;20.87;41.20
72585;BME280;60618;40.084;32.908;2022-09-09T04:46:37;89963.13;;;21.03;41.02
72585;BME280;60618;40.084;32.908;2022-09-09T04:49:04;89956.63;;;21.19;40.82
72585;BME280;60618;40.084;32.908;2022-09-09T04:51:31;89961.50;;;21.34;40.41
72585;BME280;60618;40.084;32.908;2022-09-09T04:53:58;89960.59;;;21.52;40.12
72585;BME280;60618;40.084;32.908;2022-09-09T04:56:25;89959.47;;;21.68;39.85
72585;BME280;60618;40.084;32.908;2022-09-09T04:58:52;89957.06;;;21.86;39.55
72585;BME280;60618;40.084;32.908;2022-09-09T05:01:20;89957.16;;;22.01;39.22
72585;BME280;60618;40.084;32.908;2022-09-09T05:03:48;89955.50;;;22.19;38.81
72585;BME280;60618;40.084;32.908;2022-09-09T05:06:17;89962.84;;;22.31;38.41
72585;BME280;60618;40.084;32.908;2022-09-09T05:08:44;89957.28;;;22.45;38.29
72585;BME280;60618;40.084;32.908;2022-09-09T05:11:29;89947.97;;;22.61;37.82
72585;BME280;60618;40.084;32.908;2022-09-09T05:13:56;89946.59;;;22.75;37.44
72585;BME280;60618;40.084;32.908;2022-09-09T05:16:23;89949.56;;;22.92;37.40
72585;BME280;60618;40.084;32.908;2022-09-09T05:18:50;89940.72;;;23.07;36.64
72585;BME280;60618;40.084;32.908;2022-09-09T05:21:19;89937.34;;;23.22;36.46
72585;BME280;60618;40.084;32.908;2022-09-09T05:23:46;89932.81;;;23.32;36.25
72585;BME280;60618;40.084;32.908;2022-09-09T05:26:15;89939.34;;;23.44;35.88
72585;BME280;60618;40.084;32.908;2022-09-09T05:28:44;89936.31;;;23.56;35.81
72585;BME280;60618;40.084;32.908;2022-09-09T05:31:12;89934.72;;;23.68;35.77
72585;BME280;60618;40.084;32.908;2022-09-09T05:33:44;89938.50;;;23.80;35.26
72585;BME280;60618;40.084;32.908;2022-09-09T05:36:13;89936.91;;;23.92;35.28
72585;BME280;60618;40.084;32.908;2022-09-09T05:38:40;89943.78;;;24.01;34.90
72585;BME280;60618;40.084;32.908;2022-09-09T05:41:08;89937.41;;;24.14;34.79
72585;BME280;60618;40.084;32.908;2022-09-09T05:43:35;89949.38;;;24.26;34.50
72585;BME280;60618;40.084;32.908;2022-09-09T05:48:36;89936.28;;;24.47;34.03
72585;BME280;60618;40.084;32.908;2022-09-09T05:51:03;89944.78;;;24.59;34.08
72585;BME280;60618;40.084;32.908;2022-09-09T05:53:30;89940.94;;;24.70;33.76
72585;BME280;60618;40.084;32.908;2022-09-09T05:55:59;89939.66;;;24.78;33.28
72585;BME280;60618;40.084;32.908;2022-09-09T05:58:26;89940.50;;;24.88;33.29
72585;BME280;60618;40.084;32.908;2022-09-09T06:01:02;89941.41;;;24.99;33.23
72585;BME280;60618;40.084;32.908;2022-09-09T06:03:29;89941.91;;;25.12;33.18
72585;BME280;60618;40.084;32.908;2022-09-09T06:06:04;89950.00;;;25.28;32.92
72585;BME280;60618;40.084;32.908;2022-09-09T06:08:36;89948.13;;;25.38;32.35
72585;BME280;60618;40.084;32.908;2022-09-09T06:11:05;89949.53;;;25.46;32.13
72585;BME280;60618;40.084;32.908;2022-09-09T06:13:32;89955.84;;;25.57;32.09
72585;BME280;60618;40.084;32.908;2022-09-09T06:15:59;89950.66;;;25.68;32.10
72585;BME280;60618;40.084;32.908;2022-09-09T06:18:26;89950.59;;;25.84;31.87
72585;BME280;60618;40.084;32.908;2022-09-09T06:21:01;89955.03;;;25.96;31.74
72585;BME280;60618;40.084;32.908;2022-09-09T06:23:28;89953.47;;;26.11;31.22
72585;BME280;60618;40.084;32.908;2022-09-09T06:26:22;89949.56;;;26.21;31.09
72585;BME280;60618;40.084;32.908;2022-09-09T06:28:50;89956.09;;;26.26;30.72
72585;BME280;60618;40.084;32.908;2022-09-09T06:31:20;89956.25;;;26.28;30.93
72585;BME280;60618;40.084;32.908;2022-09-09T06:33:47;89956.75;;;26.34;31.10
72585;BME280;60618;40.084;32.908;2022-09-09T06:36:20;89949.97;;;26.43;30.86
72585;BME280;60618;40.084;32.908;2022-09-09T06:38:47;89953.16;;;26.49;30.62
72585;BME280;60618;40.084;32.908;2022-09-09T06:41:17;89952.22;;;26.54;30.30
72585;BME280;60618;40.084;32.908;2022-09-09T06:43:45;89944.81;;;26.64;30.08
72585;BME280;60618;40.084;32.908;2022-09-09T06:46:17;89951.81;;;26.75;29.80
72585;BME280;60618;40.084;32.908;2022-09-09T06:48:45;89954.25;;;26.88;29.97
72585;BME280;60618;40.084;32.908;2022-09-09T06:51:18;89960.09;;;27.02;29.08
72585;BME280;60618;40.084;32.908;2022-09-09T06:53:50;89962.69;;;27.17;29.10
72585;BME280;60618;40.084;32.908;2022-09-09T06:56:31;89965.06;;;27.30;28.65
72585;BME280;60618;40.084;32.908;2022-09-09T06:59:00;89969.47;;;27.43;28.63
72585;BME280;60618;40.084;32.908;2022-09-09T07:01:29;89972.25;;;27.53;28.46
72585;BME280;60618;40.084;32.908;2022-09-09T07:03:57;89968.53;;;27.58;28.44
72585;BME280;60618;40.084;32.908;2022-09-09T07:06:28;89978.50;;;27.63;27.84
72585;BME280;60618;40.084;32.908;2022-09-09T07:09:04;89963.88;;;27.68;27.80
72585;BME280;60618;40.084;32.908;2022-09-09T07:11:36;89965.63;;;27.73;27.64
72585;BME280;60618;40.084;32.908;2022-09-09T07:14:03;89963.88;;;27.68;27.44
72585;BME280;60618;40.084;32.908;2022-09-09T07:16:30;89960.78;;;27.64;27.50
72585;BME280;60618;40.084;32.908;2022-09-09T07:18:57;89965.16;;;27.67;27.52
72585;BME280;60618;40.084;32.908;2022-09-09T07:21:26;89968.50;;;27.75;27.79
72585;BME280;60618;40.084;32.908;2022-09-09T07:23:53;89965.09;;;27.84;27.58
72585;BME280;60618;40.084;32.908;2022-09-09T07:26:23;89965.13;;;27.94;27.42
72585;BME280;60618;40.084;32.908;2022-09-09T07:28:50;89957.22;;;27.98;27.03
72585;BME280;60618;40.084;32.908;2022-09-09T07:31:29;89959.25;;;27.97;27.11
72585;BME280;60618;40.084;32.908;2022-09-09T07:33:58;89961.56;;;28.01;26.91
72585;BME280;60618;40.084;32.908;2022-09-09T07:36:33;89951.06;;;28.07;26.82
72585;BME280;60618;40.084;32.908;2022-09-09T07:39:07;89962.06;;;28.17;27.04
72585;BME280;60618;40.084;32.908;2022-09-09T07:41:49;89962.09;;;28.26;26.83
72585;BME280;60618;40.084;32.908;2022-09-09T07:44:20;89961.88;;;28.42;26.00
72585;BME280;60618;40.084;32.908;2022-09-09T07:46:47;89961.44;;;28.55;25.82
72585;BME280;60618;40.084;32.908;2022-09-09T07:49:14;89954.69;;;28.66;25.75
72585;BME280;60618;40.084;32.908;2022-09-09T07:51:44;89961.19;;;28.80;25.81
72585;BME280;60618;40.084;32.908;2022-09-09T07:54:13;89958.78;;;28.94;25.27
72585;BME280;60618;40.084;32.908;2022-09-09T07:56:41;89947.81;;;29.03;25.14
72585;BME280;60618;40.084;32.908;2022-09-09T07:59:08;89952.28;;;29.08;24.63
72585;BME280;60618;40.084;32.908;2022-09-09T08:01:42;89951.28;;;29.14;25.19
72585;BME280;60618;40.084;32.908;2022-09-09T08:04:12;89948.69;;;29.16;24.52
72585;BME280;60618;40.084;32.908;2022-09-09T08:06:41;89944.63;;;29.17;24.92
72585;BME280;60618;40.084;32.908;2022-09-09T08:09:09;89942.31;;;29.23;24.55
72585;BME280;60618;40.084;32.908;2022-09-09T08:11:38;89937.25;;;29.29;24.52
72585;BME280;60618;40.084;32.908;2022-09-09T08:14:07;89941.72;;;29.34;23.88
72585;BME280;60618;40.084;32.908;2022-09-09T08:16:37;89936.50;;;29.38;24.17
72585;BME280;60618;40.084;32.908;2022-09-09T08:19:04;89929.31;;;29.33;23.82
72585;BME280;60618;40.084;32.908;2022-09-09T08:21:32;89918.47;;;29.25;23.25
72585;BME280;60618;40.084;32.908;2022-09-09T08:24:00;89921.81;;;29.24;23.40
72585;BME280;60618;40.084;32.908;2022-09-09T08:26:33;89924.41;;;29.22;23.61
72585;BME280;60618;40.084;32.908;2022-09-09T08:29:02;89915.63;;;29.14;23.20
72585;BME280;60618;40.084;32.908;2022-09-09T08:31:35;89913.00;;;29.16;23.18
72585;BME280;60618;40.084;32.908;2022-09-09T08:34:03;89911.72;;;29.17;23.46
72585;BME280;60618;40.084;32.908;2022-09-09T08:36:37;89919.78;;;29.24;23.68
72585;BME280;60618;40.084;32.908;2022-09-09T08:39:06;89909.97;;;29.31;23.02
72585;BME280;60618;40.084;32.908;2022-09-09T08:44:31;89907.34;;;29.33;22.61
72585;BME280;60618;40.084;32.908;2022-09-09T08:50:02;89909.66;;;29.36;22.49
72585;BME280;60618;40.084;32.908;2022-09-09T08:55:53;89907.19;;;29.40;21.79
72585;BME280;60618;40.084;32.908;2022-09-09T08:58:33;89905.56;;;29.47;22.70
72585;BME280;60618;40.084;32.908;2022-09-09T09:01:14;89908.50;;;29.49;21.64
72585;BME280;60618;40.084;32.908;2022-09-09T09:11:45;89905.03;;;29.29;22.24
72585;BME280;60618;40.084;32.908;2022-09-09T09:14:22;89898.69;;;29.27;22.29
72585;BME280;60618;40.084;32.908;2022-09-09T09:16:54;89901.00;;;29.30;22.47
72585;BME280;60618;40.084;32.908;2022-09-09T09:19:24;89907.94;;;29.31;21.81
72585;BME280;60618;40.084;32.908;2022-09-09T09:27:34;89890.78;;;29.02;21.68
72585;BME280;60618;40.084;32.908;2022-09-09T09:30:14;89890.78;;;28.92;22.34
72585;BME280;60618;40.084;32.908;2022-09-09T09:32:59;89883.25;;;28.83;22.12
72585;BME280;60618;40.084;32.908;2022-09-09T09:35:27;89876.78;;;28.78;22.59
72585;BME280;60618;40.084;32.908;2022-09-09T09:37:54;89869.41;;;28.81;22.05
72585;BME280;60618;40.084;32.908;2022-09-09T09:40:55;89884.28;;;28.78;21.90
72585;BME280;60618;40.084;32.908;2022-09-09T09:43:34;89877.50;;;28.69;21.80
72585;BME280;60618;40.084;32.908;2022-09-09T09:46:03;89876.22;;;28.61;22.12
72585;BME280;60618;40.084;32.908;2022-09-09T09:48:43;89871.13;;;28.57;22.46
72585;BME280;60618;40.084;32.908;2022-09-09T09:51:13;89890.91;;;28.55;22.43
72585;BME280;60618;40.084;32.908;2022-09-09T09:53:41;89891.63;;;28.56;21.62
72585;BME280;60618;40.084;32.908;2022-09-09T09:56:10;89882.53;;;28.53;21.75
72585;BME280;60618;40.084;32.908;2022-09-09T10:01:05;89881.25;;;28.54;21.69
72585;BME280;60618;40.084;32.908;2022-09-09T10:03:33;89876.34;;;28.53;21.84
72585;BME280;60618;40.084;32.908;2022-09-09T10:06:02;89878.06;;;28.48;22.37
72585;BME280;60618;40.084;32.908;2022-09-09T10:08:29;89880.53;;;28.44;22.02
72585;BME280;60618;40.084;32.908;2022-09-09T10:16:45;89875.31;;;28.29;21.69
72585;BME280;60618;40.084;32.908;2022-09-09T10:19:16;89878.44;;;28.25;21.70
72585;BME280;60618;40.084;32.908;2022-09-09T10:22:02;89863.72;;;28.21;21.26
72585;BME280;60618;40.084;32.908;2022-09-09T10:32:38;89847.72;;;28.08;21.76
72585;BME280;60618;40.084;32.908;2022-09-09T10:35:11;89858.09;;;28.09;21.47
72585;BME280;60618;40.084;32.908;2022-09-09T10:40:50;89845.44;;;28.23;21.55
72585;BME280;60618;40.084;32.908;2022-09-09T10:59:55;89823.41;;;28.50;19.86
72585;BME280;60618;40.084;32.908;2022-09-09T11:02:29;89813.59;;;28.47;20.48
72585;BME280;60618;40.084;32.908;2022-09-09T11:05:08;89818.34;;;28.47;20.76
72585;BME280;60618;40.084;32.908;2022-09-09T11:07:48;89822.84;;;28.42;21.02
72585;BME280;60618;40.084;32.908;2022-09-09T11:12:53;89812.88;;;28.37;21.17
72585;BME280;60618;40.084;32.908;2022-09-09T11:15:28;89809.72;;;28.41;21.12
72585;BME280;60618;40.084;32.908;2022-09-09T11:18:00;89809.28;;;28.44;20.98
72585;BME280;60618;40.084;32.908;2022-09-09T11:20:28;89804.81;;;28.49;21.38
72585;BME280;60618;40.084;32.908;2022-09-09T11:23:11;89802.47;;;28.55;21.38
72585;BME280;60618;40.084;32.908;2022-09-09T11:25:42;89804.22;;;28.60;20.92
72585;BME280;60618;40.084;32.908;2022-09-09T11:42:24;89787.63;;;28.48;21.22
72585;BME280;60618;40.084;32.908;2022-09-09T11:44:51;89785.31;;;28.54;21.50
72585;BME280;60618;40.084;32.908;2022-09-09T11:47:28;89782.88;;;28.59;21.92
72585;BME280;60618;40.084;32.908;2022-09-09T11:52:44;89783.72;;;28.61;22.07
72585;BME280;60618;40.084;32.908;2022-09-09T11:55:24;89784.00;;;28.55;21.57
72585;BME280;60618;40.084;32.908;2022-09-09T11:57:57;89782.88;;;28.49;21.51
72585;BME280;60618;40.084;32.908;2022-09-09T12:00:45;89785.91;;;28.43;21.96
72585;BME280;60618;40.084;32.908;2022-09-09T12:03:50;89777.38;;;28.39;21.86
72585;BME280;60618;40.084;32.908;2022-09-09T12:06:33;89767.47;;;28.34;21.74
72585;BME280;60618;40.084;32.908;2022-09-09T12:09:25;89760.78;;;28.27;21.99
72585;BME280;60618;40.084;32.908;2022-09-09T12:17:21;89754.16;;;28.21;22.55
72585;BME280;60618;40.084;32.908;2022-09-09T12:20:00;89761.69;;;28.30;22.29
72585;BME280;60618;40.084;32.908;2022-09-09T12:22:47;89755.63;;;28.22;21.93
72585;BME280;60618;40.084;32.908;2022-09-09T12:25:23;89746.97;;;28.16;22.48
72585;BME280;60618;40.084;32.908;2022-09-09T12:28:13;89753.16;;;28.16;22.52
72585;BME280;60618;40.084;32.908;2022-09-09T12:33:45;89750.56;;;28.18;22.39
72585;BME280;60618;40.084;32.908;2022-09-09T12:36:15;89743.50;;;28.15;22.56
72585;BME280;60618;40.084;32.908;2022-09-09T12:38:44;89739.03;;;28.20;22.12
72585;BME280;60618;40.084;32.908;2022-09-09T12:41:22;89741.75;;;28.20;22.22
72585;BME280;60618;40.084;32.908;2022-09-09T12:43:50;89731.97;;;28.17;22.27
72585;BME280;60618;40.084;32.908;2022-09-09T12:46:30;89734.00;;;28.16;22.53
72585;BME280;60618;40.084;32.908;2022-09-09T12:48:59;89729.69;;;28.13;22.04
72585;BME280;60618;40.084;32.908;2022-09-09T12:51:28;89722.59;;;28.10;22.57
72585;BME280;60618;40.084;32.908;2022-09-09T12:53:58;89719.72;;;28.08;22.37
72585;BME280;60618;40.084;32.908;2022-09-09T12:56:28;89713.66;;;28.10;22.45
72585;BME280;60618;40.084;32.908;2022-09-09T12:58:57;89709.75;;;28.13;22.62
72585;BME280;60618;40.084;32.908;2022-09-09T13:01:30;89711.22;;;28.14;22.53
72585;BME280;60618;40.084;32.908;2022-09-09T13:03:57;89711.22;;;28.14;22.34
72585;BME280;60618;40.084;32.908;2022-09-09T13:06:25;89716.69;;;28.14;22.54
72585;BME280;60618;40.084;32.908;2022-09-09T13:08:57;89704.28;;;28.13;21.96
72585;BME280;60618;40.084;32.908;2022-09-09T13:11:34;89718.13;;;28.15;22.08
72585;BME280;60618;40.084;32.908;2022-09-09T13:14:03;89719.56;;;28.16;21.88
72585;BME280;60618;40.084;32.908;2022-09-09T13:16:32;89712.34;;;28.11;21.95
72585;BME280;60618;40.084;32.908;2022-09-09T13:19:16;89712.09;;;28.07;21.74
72585;BME280;60618;40.084;32.908;2022-09-09T13:21:43;89717.97;;;28.03;21.77
72585;BME280;60618;40.084;32.908;2022-09-09T13:26:59;89715.69;;;27.99;22.06
72585;BME280;60618;40.084;32.908;2022-09-09T13:29:27;89711.06;;;28.02;22.22
72585;BME280;60618;40.084;32.908;2022-09-09T13:32:04;89714.81;;;28.07;21.74
72585;BME280;60618;40.084;32.908;2022-09-09T13:34:33;89712.22;;;27.99;22.08
72585;BME280;60618;40.084;32.908;2022-09-09T13:37:23;89706.59;;;27.97;22.19
72585;BME280;60618;40.084;32.908;2022-09-09T13:39:53;89710.06;;;27.97;21.97
72585;BME280;60618;40.084;32.908;2022-09-09T13:42:28;89714.09;;;27.96;22.25
72585;BME280;60618;40.084;32.908;2022-09-09T13:44:57;89712.94;;;27.99;21.84
72585;BME280;60618;40.084;32.908;2022-09-09T13:47:31;89715.25;;;28.03;21.54
72585;BME280;60618;40.084;32.908;2022-09-09T13:50:17;89710.91;;;28.00;21.91
72585;BME280;60618;40.084;32.908;2022-09-09T13:52:44;89714.09;;;27.96;21.17
72585;BME280;60618;40.084;32.908;2022-09-09T13:55:11;89715.25;;;27.93;21.43
72585;BME280;60618;40.084;32.908;2022-09-09T13:57:38;89714.53;;;27.93;21.50
72585;BME280;60618;40.084;32.908;2022-09-09T14:00:06;89723.75;;;27.88;21.53
72585;BME280;60618;40.084;32.908;2022-09-09T14:02:33;89712.81;;;27.88;21.74
72585;BME280;60618;40.084;32.908;2022-09-09T14:05:00;89721.28;;;27.82;21.15
72585;BME280;60618;40.084;32.908;2022-09-09T14:07:27;89715.38;;;27.86;21.09
72585;BME280;60618;40.084;32.908;2022-09-09T14:09:54;89708.31;;;27.83;20.87
72585;BME280;60618;40.084;32.908;2022-09-09T14:12:21;89712.94;;;27.80;21.10
72585;BME280;60618;40.084;32.908;2022-09-09T14:14:48;89718.09;;;27.66;21.29
72585;BME280;60618;40.084;32.908;2022-09-09T14:17:16;89719.09;;;27.61;21.67
72585;BME280;60618;40.084;32.908;2022-09-09T14:19:43;89708.56;;;27.58;21.39
72585;BME280;60618;40.084;32.908;2022-09-09T14:22:10;89714.03;;;27.58;21.00
72585;BME280;60618;40.084;32.908;2022-09-09T14:24:37;89715.03;;;27.53;21.21
72585;BME280;60618;40.084;32.908;2022-09-09T14:27:04;89719.06;;;27.52;21.42
72585;BME280;60618;40.084;32.908;2022-09-09T14:29:31;89723.97;;;27.53;20.91
72585;BME280;60618;40.084;32.908;2022-09-09T15:01:22;89725.66;;;26.66;25.15
72585;BME280;60618;40.084;32.908;2022-09-09T15:03:52;89721.22;;;26.70;22.45
72585;BME280;60618;40.084;32.908;2022-09-09T15:06:20;89720.91;;;26.66;24.31
72585;BME280;60618;40.084;32.908;2022-09-09T15:08:47;89725.03;;;26.57;25.58
72585;BME280;60618;40.084;32.908;2022-09-09T15:11:14;89726.03;;;26.52;25.00
72585;BME280;60618;40.084;32.908;2022-09-09T15:13:42;89730.59;;;26.50;25.69
72585;BME280;60618;40.084;32.908;2022-09-09T15:16:17;89727.41;;;26.44;26.59
72585;BME280;60618;40.084;32.908;2022-09-09T15:18:46;89724.50;;;26.42;25.27
72585;BME280;60618;40.084;32.908;2022-09-09T15:21:16;89728.53;;;26.41;24.83
72585;BME280;60618;40.084;32.908;2022-09-09T15:23:43;89739.13;;;26.37;25.27
72585;BME280;60618;40.084;32.908;2022-09-09T15:26:10;89726.22;;;26.20;24.37
72585;BME280;60618;40.084;32.908;2022-09-09T15:28:38;89730.97;;;26.19;23.89
72585;BME280;60618;40.084;32.908;2022-09-09T15:33:32;89730.75;;;26.08;22.89
72585;BME280;60618;40.084;32.908;2022-09-09T15:36:00;89739.88;;;26.02;22.75
72585;BME280;60618;40.084;32.908;2022-09-09T15:38:26;89734.66;;;25.97;22.88
72585;BME280;60618;40.084;32.908;2022-09-09T15:40:54;89735.66;;;25.92;22.66
72585;BME280;60618;40.084;32.908;2022-09-09T15:43:21;89735.88;;;25.86;22.57
72585;BME280;60618;40.084;32.908;2022-09-09T15:45:54;89736.28;;;25.83;22.39
72585;BME280;60618;40.084;32.908;2022-09-09T15:48:30;89731.78;;;25.78;22.98